Historique des mesures à Cassis (13260), France
Quotidien Résumé Juin 6, 2017 Unités:  US    Métrique   Métrique/US
« Précédent (Jour)
Suivant (Jour) »
Quotidien Hebdomadaire Mensuel Annuel Période au choix
  Maximum: Minimum: Moyenne:
Température: 32 °F 63.3 °F 69.8 °F
Point de rosée: 32 °F 44.1 °F 52.9 °F
Humidité: Humidity % 34 % 53 %
Vitesse du vent: WindSpeedKMH mph 0.0 mph 9.6 mph
Rafales: WindSpeedGustKMH mph - -
Vent:- - SSW
Pression: 0 in 29.7 in -
Précipitations: 0 in    
Historical Graphs
 
 
Mesures pour : Juin 6, 2017
Heure Temperature Point de rosée Pression Vent Vitesse du vent Rafales Humidité Pluie (par heure) Conditions
32 °F 32 °F 0 in Calm     Humidity % 0 in SoftwareType W/m2
00:10 69.1 °F 55.9 °F 29.7 in Calm     63 % 0 in open2300-1.11 W/m2
01:10 67.3 °F 55 °F 29.7 in Calm   1.8 mph 65 % 0 in open2300-1.11 W/m2
02:10 66 °F 54 °F 29.7 in NNE 1.4 mph 1.8 mph 65 % 0 in open2300-1.11 W/m2
03:10 65.3 °F 53.6 °F 29.7 in NNE 1.4 mph 2.1 mph 66 % 0 in open2300-1.11 W/m2
04:10 64.6 °F 53.8 °F 29.7 in NNE 2.1 mph 2.1 mph 68 % 0 in open2300-1.11 W/m2
05:10 64.2 °F 54.3 °F 29.7 in Calm   1.4 mph 70 % 0 in open2300-1.11 W/m2
06:10 63.3 °F 54.1 °F 29.7 in Calm   1.4 mph 72 % 0 in open2300-1.11 W/m2
07:10 64 °F 55.2 °F 29.7 in Calm     73 % 0 in open2300-1.11 W/m2
08:10 69.6 °F 59.4 °F 29.7 in Calm     70 % 0 in open2300-1.11 W/m2
09:10 69.4 °F 59.2 °F 29.7 in South 4.7 mph 4.7 mph 70 % 0 in open2300-1.11 W/m2
10:10 71.8 °F 60.6 °F 29.7 in Calm   4.3 mph 68 % 0 in open2300-1.11 W/m2
11:10 78.1 °F 63.1 °F 29.8 in Calm   4.7 mph 60 % 0 in open2300-1.11 W/m2
12:10 76.5 °F 57.9 °F 29.8 in WNW 23.0 mph 25.3 mph 53 % 0 in open2300-1.11 W/m2
13:10 77.7 °F 58.3 °F 29.8 in West 17.2 mph 17.2 mph 51 % 0 in open2300-1.11 W/m2
14:10 77.4 °F 58.3 °F 29.8 in NW 15.1 mph 16.9 mph 52 % 0 in open2300-1.11 W/m2
15:10 76.1 °F 55.6 °F 29.8 in WNW 19.5 mph 36.7 mph 49 % 0 in open2300-1.11 W/m2
16:10 76.1 °F 55 °F 29.8 in NW 34.6 mph 34.6 mph 48 % 0 in open2300-1.11 W/m2
17:10 77.7 °F 54 °F 29.7 in West 25.6 mph 25.6 mph 44 % 0 in open2300-1.11 W/m2
18:11 76.6 °F 49.1 °F 29.8 in NW 21.6 mph 21.6 mph 38 % 0 in open2300-1.11 W/m2
19:10 75 °F 44.6 °F 29.8 in WNW 24.8 mph 24.8 mph 34 % 0 in open2300-1.11 W/m2
20:10 73.6 °F 44.1 °F 29.8 in NNE 17.2 mph 25.3 mph 35 % 0 in open2300-1.11 W/m2
21:10 71.6 °F 44.6 °F 29.8 in NNE 7.2 mph 23.3 mph 38 % 0 in open2300-1.11 W/m2
22:10 70.5 °F 45.1 °F 29.8 in WNW 11.9 mph 21.2 mph 40 % 0 in open2300-1.11 W/m2
23:10 69.4 °F 44.8 °F 29.8 in NNW 11.6 mph 25.9 mph 41 % 0 in open2300-1.11 W/m2
Observations météo à CASSIS
WU-History script by Weather Underground - 1 mb